Time;durP1;ratioP1;P1;durP2;ratioP2;P2;SDS_P1;SDS_P2;PMS_P1;PMS_P2;Temp;Humidity;BMP_temperature;BMP_pressure;BME280_temperature;BME280_humidity;BME280_pressure;Samples;Min_cycle;Max_cycle;Signal;HPM_P1;HPM_P2
2023/01/14 00:00:24;;;;;;;;;;;;;;;18.84;35.23;96041.41;10387705;28;3247;-42
2023/01/14 00:05:24;;;;;;;;;;;;;;;18.78;35.26;96033.75;10393728;28;3090;-43
2023/01/14 00:10:25;;;;;;;;;;;;;;;18.75;35.27;96029.03;10390706;28;3130;-44
2023/01/14 00:15:25;;;;;;;;;;;;;;;18.72;35.22;96032.16;10394429;28;2180;-43
2023/01/14 00:20:27;;;;;;;;;;;;;;;18.65;35.01;96030.53;10390814;28;3200;-43
2023/01/14 00:25:28;;;;;;;;;;;;;;;18.63;35.04;96045.75;10391920;28;2138;-42
2023/01/14 00:30:28;;;;;;;;;;;;;;;18.62;34.84;96044.19;10396686;28;3162;-45
2023/01/14 00:35:28;;;;;;;;;;;;;;;18.59;34.95;96039.44;10392099;28;3158;-43
2023/01/14 00:40:29;;;;;;;;;;;;;;;18.56;34.94;96041.78;10388839;28;2144;-42
2023/01/14 00:45:29;;;;;;;;;;;;;;;18.52;34.89;96041.50;10385917;28;3165;-43
2023/01/14 00:50:29;;;;;;;;;;;;;;;18.48;34.84;96039.63;10394969;28;3121;-43
2023/01/14 00:55:29;;;;;;;;;;;;;;;18.44;34.82;96043.81;10389899;28;2106;-43
2023/01/14 01:00:30;;;;;;;;;;;;;;;18.41;34.79;96041.66;10385994;28;2165;-41
2023/01/14 01:05:34;;;;;;;;;;;;;;;18.38;34.66;96042.94;10388450;28;3475;-42
2023/01/14 01:10:35;;;;;;;;;;;;;;;18.32;34.67;96035.31;10398234;28;2219;-42
2023/01/14 01:15:35;;;;;;;;;;;;;;;18.22;34.82;96027.34;10400716;28;3107;-42
2023/01/14 01:20:36;;;;;;;;;;;;;;;18.23;34.92;96040.22;10391397;28;2113;-42
2023/01/14 01:25:36;;;;;;;;;;;;;;;18.17;34.92;96035.19;10399340;28;3161;-41
2023/01/14 01:30:36;;;;;;;;;;;;;;;18.13;35.07;96041.97;10393572;28;2101;-43
2023/01/14 01:35:36;;;;;;;;;;;;;;;18.08;35.00;96042.72;10398360;28;3277;-44
2023/01/14 01:40:37;;;;;;;;;;;;;;;18.05;35.04;96042.44;10391818;28;3190;-43
2023/01/14 01:45:44;;;;;;;;;;;;;;;18.02;34.92;96053.41;10397448;28;3205;-43
2023/01/14 01:50:49;;;;;;;;;;;;;;;17.99;34.97;96056.56;10404958;28;3113;-44
2023/01/14 01:55:51;;;;;;;;;;;;;;;17.96;35.07;96054.41;10425235;28;3172;-44
2023/01/14 02:00:52;;;;;;;;;;;;;;;17.95;34.98;96068.59;10404212;28;2258;-45
2023/01/14 02:05:52;;;;;;;;;;;;;;;17.91;35.20;96072.75;10415614;28;2192;-45
2023/01/14 02:10:57;;;;;;;;;;;;;;;17.89;35.14;96072.97;10395766;28;3122;-43
2023/01/14 02:16:06;;;;;;;;;;;;;;;17.85;35.20;96083.19;10395859;28;3198;-42
2023/01/14 02:21:09;;;;;;;;;;;;;;;17.83;35.09;96087.88;10405541;28;3130;-45
2023/01/14 02:26:29;;;;;;;;;;;;;;;17.81;35.22;96089.97;10402069;28;3571;-44
2023/01/14 02:31:37;;;;;;;;;;;;;;;17.78;35.21;96090.44;10390492;28;3110;-42
2023/01/14 02:36:55;;;;;;;;;;;;;;;17.76;35.23;96094.38;10399475;28;3129;-43
2023/01/14 02:47:16;;;;;;;;;;;;;;;17.71;35.21;96092.47;10391478;28;3209;-43
2023/01/14 02:52:17;;;;;;;;;;;;;;;17.70;35.44;96071.75;10404792;28;3289;-42
2023/01/14 02:57:29;;;;;;;;;;;;;;;17.67;35.45;96075.66;10396585;28;2121;-43
2023/01/14 03:02:35;;;;;;;;;;;;;;;17.66;35.37;96079.31;10386044;28;3160;-42
2023/01/14 03:07:47;;;;;;;;;;;;;;;17.63;35.25;96079.81;10394261;28;2161;-43
2023/01/14 03:13:07;;;;;;;;;;;;;;;17.62;35.38;96090.56;10409589;28;3141;-43
2023/01/14 03:18:14;;;;;;;;;;;;;;;17.60;35.27;96088.16;10396885;28;3221;-43
2023/01/14 03:23:15;;;;;;;;;;;;;;;17.56;35.44;96086.28;10402057;28;2133;-43
2023/01/14 03:28:17;;;;;;;;;;;;;;;17.54;35.50;96068.19;10390325;28;2093;-44
2023/01/14 03:33:19;;;;;;;;;;;;;;;17.54;35.37;96077.84;10410265;28;2266;-42
2023/01/14 03:38:37;;;;;;;;;;;;;;;17.51;35.51;96073.13;10389365;28;3374;-43
2023/01/14 03:43:42;;;;;;;;;;;;;;;17.50;35.58;96071.53;10398880;28;3098;-43
2023/01/14 03:48:42;;;;;;;;;;;;;;;17.48;35.49;96074.38;10409227;28;3170;-43
2023/01/14 03:53:58;;;;;;;;;;;;;;;17.45;35.56;96069.63;10392251;28;3118;-43
2023/01/14 03:59:00;;;;;;;;;;;;;;;17.45;35.55;96071.47;10393765;28;3098;-44
2023/01/14 04:04:01;;;;;;;;;;;;;;;17.42;35.57;96080.59;10391814;28;2186;-43
2023/01/14 04:09:01;;;;;;;;;;;;;;;17.41;35.67;96075.59;10394704;28;2192;-43
2023/01/14 04:19:20;;;;;;;;;;;;;;;17.37;35.55;96082.38;10390486;28;2261;-44
2023/01/14 04:24:20;;;;;;;;;;;;;;;17.35;35.47;96082.59;10391305;28;2157;-42
2023/01/14 04:29:21;;;;;;;;;;;;;;;17.34;35.63;96083.66;10391044;28;2208;-43
2023/01/14 04:34:21;;;;;;;;;;;;;;;17.33;35.68;96076.03;10391079;28;3185;-42
2023/01/14 04:39:21;;;;;;;;;;;;;;;17.30;35.55;96082.56;10383493;28;3215;-42
2023/01/14 04:44:21;;;;;;;;;;;;;;;17.31;35.65;96080.75;10394459;28;3154;-43
2023/01/14 04:49:22;;;;;;;;;;;;;;;17.28;35.63;96076.78;10394647;28;3039;-42
2023/01/14 04:54:22;;;;;;;;;;;;;;;17.28;35.65;96068.91;10391521;28;3111;-43
2023/01/14 04:59:22;;;;;;;;;;;;;;;17.26;35.71;96076.22;10393937;28;3161;-43
2023/01/14 05:04:22;;;;;;;;;;;;;;;17.24;35.61;96069.63;10394717;28;2199;-44
2023/01/14 05:09:23;;;;;;;;;;;;;;;17.26;35.70;96070.97;10393613;28;3126;-42
2023/01/14 05:14:23;;;;;;;;;;;;;;;17.33;35.72;96066.34;10402387;28;2344;-42
2023/01/14 05:19:23;;;;;;;;;;;;;;;17.38;35.49;96074.25;10390146;28;3305;-42
2023/01/14 05:24:23;;;;;;;;;;;;;;;17.42;35.26;96075.34;10395524;28;2128;-42
2023/01/14 05:29:24;;;;;;;;;;;;;;;17.47;35.19;96078.03;10390417;28;3169;-43
2023/01/14 05:34:24;;;;;;;;;;;;;;;17.52;34.99;96078.13;10390682;28;3252;-44
2023/01/14 05:39:24;;;;;;;;;;;;;;;17.59;34.92;96077.94;10395371;28;3142;-43
2023/01/14 05:50:03;;;;;;;;;;;;;;;17.70;34.59;96067.28;10313448;28;3190;-42
2023/01/14 05:55:04;;;;;;;;;;;;;;;17.73;34.35;96053.69;10380647;28;2184;-43
2023/01/14 06:00:04;;;;;;;;;;;;;;;17.78;34.38;96038.00;10398031;28;3193;-42
2023/01/14 06:10:41;;;;;;;;;;;;;;;17.86;34.21;96050.69;10374460;28;3157;-43
2023/01/14 06:15:45;;;;;;;;;;;;;;;17.91;34.20;96041.28;10396619;28;3162;-46
2023/01/14 06:20:45;;;;;;;;;;;;;;;17.93;33.98;96045.22;10396392;28;2163;-43
2023/01/14 06:25:46;;;;;;;;;;;;;;;17.97;33.98;96046.28;10392633;28;2105;-43
2023/01/14 06:30:46;;;;;;;;;;;;;;;18.01;33.80;96047.38;10399158;28;3164;-43
2023/01/14 06:35:46;;;;;;;;;;;;;;;18.02;33.83;96051.59;10395097;28;3180;-42
2023/01/14 06:40:46;;;;;;;;;;;;;;;18.06;33.84;96036.13;10396913;28;3342;-43
2023/01/14 06:45:50;;;;;;;;;;;;;;;18.10;33.76;96042.47;10391874;28;3130;-43
2023/01/14 06:50:51;;;;;;;;;;;;;;;18.10;33.76;96034.59;10394079;28;2108;-42
2023/01/14 06:55:51;;;;;;;;;;;;;;;18.10;33.59;96035.41;10399244;28;3161;-42
2023/01/14 07:00:53;;;;;;;;;;;;;;;18.13;33.61;96023.63;10395740;28;3097;-45
2023/01/14 07:05:54;;;;;;;;;;;;;;;18.15;33.53;96027.56;10388189;28;2162;-42
2023/01/14 07:10:54;;;;;;;;;;;;;;;18.16;33.51;96029.13;10391052;28;3174;-45
2023/01/14 07:15:55;;;;;;;;;;;;;;;18.18;33.49;96016.56;10394375;28;3158;-43
2023/01/14 07:20:56;;;;;;;;;;;;;;;18.20;33.42;96008.44;10394866;28;3099;-42
2023/01/14 07:25:57;;;;;;;;;;;;;;;18.22;33.35;95995.84;10395099;28;3094;-43
2023/01/14 07:30:57;;;;;;;;;;;;;;;18.23;33.31;95995.63;10396202;28;3305;-43
2023/01/14 07:35:57;;;;;;;;;;;;;;;18.25;33.39;95984.88;10409935;28;3221;-43
2023/01/14 07:40:57;;;;;;;;;;;;;;;18.29;33.63;95978.06;10388405;28;2093;-42
2023/01/14 07:46:01;;;;;;;;;;;;;;;18.30;33.35;95969.16;10396961;28;3132;-44
2023/01/14 07:51:04;;;;;;;;;;;;;;;18.33;33.47;95966.81;10398632;28;3484;-43
2023/01/14 07:56:05;;;;;;;;;;;;;;;18.44;34.09;95951.94;10394653;28;3094;-42
2023/01/14 08:01:06;;;;;;;;;;;;;;;18.44;33.81;95960.59;10391509;28;2192;-42
2023/01/14 08:06:06;;;;;;;;;;;;;;;18.46;34.08;95957.72;10388423;28;3185;-42
2023/01/14 08:11:06;;;;;;;;;;;;;;;18.49;33.77;95957.22;10389080;28;3193;-43
2023/01/14 08:16:09;;;;;;;;;;;;;;;18.49;34.14;95946.72;10397698;28;2168;-44
2023/01/14 08:21:09;;;;;;;;;;;;;;;18.85;34.31;95947.66;10390653;28;3139;-43
2023/01/14 08:26:10;;;;;;;;;;;;;;;18.99;34.20;95960.06;10385400;28;3157;-44
2023/01/14 08:31:11;;;;;;;;;;;;;;;19.08;33.70;95955.09;10395311;28;3203;-45
2023/01/14 08:36:12;;;;;;;;;;;;;;;19.22;33.83;95941.22;10392984;28;2177;-44
2023/01/14 08:41:13;;;;;;;;;;;;;;;19.24;33.51;95938.31;10393425;28;3117;-45
2023/01/14 08:46:13;;;;;;;;;;;;;;;19.38;34.06;95927.06;10387862;28;3145;-45
2023/01/14 08:51:14;;;;;;;;;;;;;;;19.43;33.57;95921.78;10391752;28;3095;-44
2023/01/14 08:56:16;;;;;;;;;;;;;;;19.47;33.58;95909.69;10398506;28;2142;-44
2023/01/14 09:01:16;;;;;;;;;;;;;;;19.60;33.97;95902.38;10394623;28;2164;-44
2023/01/14 09:06:17;;;;;;;;;;;;;;;19.63;34.06;95899.19;10393408;28;3238;-44
2023/01/14 09:21:57;;;;;;;;;;;;;;;19.75;34.39;95884.72;10390912;28;3197;-44
2023/01/14 09:26:58;;;;;;;;;;;;;;;19.77;34.23;95893.16;10388850;28;3133;-44
2023/01/14 09:31:58;;;;;;;;;;;;;;;19.81;34.25;95896.03;10400145;28;2185;-44
2023/01/14 09:36:58;;;;;;;;;;;;;;;19.89;34.77;95903.38;10396619;28;3180;-43
2023/01/14 09:41:59;;;;;;;;;;;;;;;19.84;34.21;95895.50;10394403;28;3107;-44
2023/01/14 09:47:00;;;;;;;;;;;;;;;19.77;35.06;95892.34;10395751;28;2189;-48
2023/01/14 09:52:06;;;;;;;;;;;;;;;19.81;34.74;95877.59;10394903;28;2172;-44
2023/01/14 09:57:10;;;;;;;;;;;;;;;19.75;35.06;95870.78;10409484;28;2329;-46
2023/01/14 10:02:23;;;;;;;;;;;;;;;19.84;34.86;95871.84;10393888;28;3138;-46
2023/01/14 10:07:24;;;;;;;;;;;;;;;19.80;35.16;95853.16;10402709;28;2129;-43
2023/01/14 10:12:26;;;;;;;;;;;;;;;19.78;35.18;95847.38;10398252;28;2176;-46
2023/01/14 10:17:26;;;;;;;;;;;;;;;19.76;35.18;95838.97;10396500;28;2137;-46
2023/01/14 10:22:29;;;;;;;;;;;;;;;19.71;34.92;95820.56;10395367;28;3169;-45
2023/01/14 10:27:31;;;;;;;;;;;;;;;19.67;34.82;95806.38;10395036;28;3122;-47
2023/01/14 10:32:31;;;;;;;;;;;;;;;19.65;34.68;95795.34;10390830;28;3088;-45
2023/01/14 10:37:32;;;;;;;;;;;;;;;19.63;34.70;95783.50;10391569;28;3157;-43
2023/01/14 10:42:32;;;;;;;;;;;;;;;19.65;34.87;95778.75;10390384;28;3129;-45
2023/01/14 10:47:32;;;;;;;;;;;;;;;19.68;34.53;95765.84;10404435;28;3160;-41
2023/01/14 10:52:33;;;;;;;;;;;;;;;19.71;34.80;95769.78;10409490;28;3133;-44
2023/01/14 10:57:33;;;;;;;;;;;;;;;19.64;34.89;95764.81;10402260;28;2158;-46
2023/01/14 11:02:40;;;;;;;;;;;;;;;19.65;34.77;95752.47;10399631;28;2176;-46
2023/01/14 11:07:41;;;;;;;;;;;;;;;19.69;34.87;95748.25;10413694;28;3483;-46
2023/01/14 11:12:41;;;;;;;;;;;;;;;19.67;34.88;95724.06;10388192;28;2164;-45
2023/01/14 11:17:41;;;;;;;;;;;;;;;19.68;35.02;95710.63;10395497;28;3235;-46
2023/01/14 11:22:41;;;;;;;;;;;;;;;19.60;35.00;95702.53;10397482;28;3145;-46
2023/01/14 11:27:45;;;;;;;;;;;;;;;19.61;35.13;95688.31;10384712;28;2092;-45
2023/01/14 11:32:48;;;;;;;;;;;;;;;19.63;35.11;95660.69;10402376;28;3123;-45
2023/01/14 11:37:48;;;;;;;;;;;;;;;19.57;35.17;95651.25;10390470;28;3145;-44
2023/01/14 11:42:50;;;;;;;;;;;;;;;19.54;35.34;95635.25;10389906;28;3241;-45
2023/01/14 11:47:51;;;;;;;;;;;;;;;19.49;35.56;95633.41;10410360;28;2180;-45
2023/01/14 11:53:15;;;;;;;;;;;;;;;19.43;35.51;95632.63;10390595;28;2211;-45
2023/01/14 11:58:21;;;;;;;;;;;;;;;19.40;35.61;95629.75;10398155;28;3275;-44
2023/01/14 12:03:35;;;;;;;;;;;;;;;19.38;35.66;95621.34;10397531;28;3186;-45
2023/01/14 12:08:35;;;;;;;;;;;;;;;19.31;36.01;95605.84;10407739;28;3210;-46
2023/01/14 12:19:06;;;;;;;;;;;;;;;19.29;35.46;95581.66;10401473;28;3165;-49
2023/01/14 12:24:10;;;;;;;;;;;;;;;19.20;35.64;95577.25;10382346;28;3169;-45
2023/01/14 12:29:13;;;;;;;;;;;;;;;19.09;35.69;95557.31;10392258;28;3154;-47
2023/01/14 12:34:18;;;;;;;;;;;;;;;19.03;35.81;95546.03;10382562;28;2177;-44
2023/01/14 12:50:03;;;;;;;;;;;;;;;18.83;36.09;95532.97;10395281;28;3161;-45
2023/01/14 12:55:05;;;;;;;;;;;;;;;18.81;35.92;95526.41;10389452;28;3161;-46
2023/01/14 13:00:17;;;;;;;;;;;;;;;18.75;36.32;95522.22;10386029;28;3109;-45
2023/01/14 13:05:23;;;;;;;;;;;;;;;18.73;36.25;95508.59;10393349;28;3240;-46
2023/01/14 13:10:33;;;;;;;;;;;;;;;18.61;36.45;95504.41;10401213;28;3213;-45
2023/01/14 13:15:34;;;;;;;;;;;;;;;18.58;36.52;95504.97;10395354;28;3178;-49
2023/01/14 13:20:45;;;;;;;;;;;;;;;18.57;36.61;95490.25;10402191;28;3169;-44
2023/01/14 13:25:46;;;;;;;;;;;;;;;18.56;36.60;95486.06;10401421;28;3180;-44
2023/01/14 13:30:50;;;;;;;;;;;;;;;18.58;36.83;95475.28;10417288;28;3206;-47
2023/01/14 13:36:05;;;;;;;;;;;;;;;18.46;36.91;95466.94;10413920;28;2138;-45
2023/01/14 13:41:06;;;;;;;;;;;;;;;18.45;37.18;95446.97;10397407;28;3087;-49
2023/01/14 13:46:07;;;;;;;;;;;;;;;18.39;37.40;95434.88;10397485;28;3103;-46
2023/01/14 13:51:19;;;;;;;;;;;;;;;18.38;37.30;95420.22;10402015;28;3121;-46
2023/01/14 13:56:19;;;;;;;;;;;;;;;18.33;37.46;95405.25;10395582;28;3247;-45
2023/01/14 14:01:23;;;;;;;;;;;;;;;18.47;37.83;95401.03;10399626;28;3157;-46
2023/01/14 14:06:24;;;;;;;;;;;;;;;18.44;38.38;95388.44;10396473;28;3101;-47
2023/01/14 14:11:24;;;;;;;;;;;;;;;18.40;38.90;95389.22;10397643;28;2178;-46
2023/01/14 14:16:24;;;;;;;;;;;;;;;18.28;38.94;95376.41;10398935;28;3131;-49
2023/01/14 14:21:27;;;;;;;;;;;;;;;18.29;39.12;95374.56;10399926;28;3141;-45
2023/01/14 14:26:28;;;;;;;;;;;;;;;18.30;39.42;95360.41;10417605;28;3138;-48
2023/01/14 14:31:32;;;;;;;;;;;;;;;18.42;39.63;95353.78;10412657;28;3118;-47
2023/01/14 14:36:32;;;;;;;;;;;;;;;18.45;39.61;95337.53;10404757;28;2165;-44
2023/01/14 14:41:34;;;;;;;;;;;;;;;18.42;39.90;95337.25;10405225;28;2203;-46
2023/01/14 14:46:35;;;;;;;;;;;;;;;18.41;39.93;95336.47;10394733;28;3243;-45
2023/01/14 14:51:42;;;;;;;;;;;;;;;18.59;39.70;95320.13;10399849;28;3219;-44
2023/01/14 14:56:42;;;;;;;;;;;;;;;18.61;39.88;95330.34;10392359;28;3157;-44
2023/01/14 15:01:42;;;;;;;;;;;;;;;18.75;40.45;95320.84;10400598;28;3170;-55
2023/01/14 15:06:42;;;;;;;;;;;;;;;18.91;40.16;95329.41;10418650;28;3090;-44
2023/01/14 15:11:46;;;;;;;;;;;;;;;18.94;40.41;95323.63;10403656;28;2125;-45
2023/01/14 15:16:49;;;;;;;;;;;;;;;19.05;40.04;95320.63;10408265;28;3513;-45
2023/01/14 15:21:50;;;;;;;;;;;;;;;19.08;39.32;95299.06;10402644;28;3170;-43
2023/01/14 15:26:51;;;;;;;;;;;;;;;19.20;39.53;95298.72;10396767;28;2113;-45
2023/01/14 15:31:51;;;;;;;;;;;;;;;19.21;38.67;95287.94;10404695;28;3222;-44
2023/01/14 15:37:05;;;;;;;;;;;;;;;19.18;38.10;95285.88;10399584;28;3451;-53
2023/01/14 15:42:06;;;;;;;;;;;;;;;19.21;37.50;95271.38;10413182;28;2239;-52
2023/01/14 15:47:06;;;;;;;;;;;;;;;19.25;37.59;95273.19;10396878;28;2125;-58
2023/01/14 15:52:22;;;;;;;;;;;;;;;19.30;37.81;95267.09;10394758;28;3165;-58
2023/01/14 15:57:24;;;;;;;;;;;;;;;19.33;37.53;95262.09;10403996;28;3163;-48
2023/01/14 16:02:27;;;;;;;;;;;;;;;19.33;37.81;95256.84;10387908;28;2148;-48
2023/01/14 16:07:28;;;;;;;;;;;;;;;19.37;37.59;95260.47;10395570;28;2403;-48
2023/01/14 16:12:28;;;;;;;;;;;;;;;19.38;37.67;95253.41;10393638;28;3118;-46
2023/01/14 16:17:28;;;;;;;;;;;;;;;19.40;37.58;95244.19;10387306;28;3122;-47
2023/01/14 16:22:28;;;;;;;;;;;;;;;19.44;37.85;95239.94;10397542;28;3183;-70
2023/01/14 16:27:29;;;;;;;;;;;;;;;19.46;37.74;95237.81;10394143;28;3234;-69
2023/01/14 16:32:29;;;;;;;;;;;;;;;19.50;37.57;95235.41;10395976;28;3165;-74
2023/01/14 16:37:29;;;;;;;;;;;;;;;19.49;37.97;95223.31;10407084;28;3250;-69
2023/01/14 16:42:29;;;;;;;;;;;;;;;19.47;37.71;95218.31;10390454;28;2150;-65
2023/01/14 16:47:30;;;;;;;;;;;;;;;19.49;37.91;95218.06;10382161;28;2172;-45
2023/01/14 16:52:30;;;;;;;;;;;;;;;19.47;37.82;95236.72;10391712;28;2125;-47
2023/01/14 16:57:30;;;;;;;;;;;;;;;19.47;38.41;95226.22;10390073;28;3200;-47
2023/01/14 17:02:30;;;;;;;;;;;;;;;19.49;38.17;95231.97;10394877;28;2113;-48
2023/01/14 17:07:31;;;;;;;;;;;;;;;19.47;38.16;95220.97;10394630;28;3138;-49
2023/01/14 17:12:37;;;;;;;;;;;;;;;19.52;38.14;95211.44;10397043;28;2140;-45
2023/01/14 17:17:38;;;;;;;;;;;;;;;19.54;38.64;95196.22;10404405;28;3157;-46
2023/01/14 17:22:38;;;;;;;;;;;;;;;19.58;37.08;95195.34;10391691;28;3109;-45
2023/01/14 17:27:38;;;;;;;;;;;;;;;19.60;36.86;95197.72;10395833;28;3157;-44
2023/01/14 17:32:38;;;;;;;;;;;;;;;19.63;36.56;95190.03;10403257;28;3258;-44
2023/01/14 17:37:39;;;;;;;;;;;;;;;19.69;37.68;95196.03;10413771;28;3169;-47
2023/01/14 17:42:40;;;;;;;;;;;;;;;19.72;37.16;95216.50;10399264;28;3237;-44
2023/01/14 17:47:40;;;;;;;;;;;;;;;19.72;36.91;95214.63;10393366;28;3110;-45
2023/01/14 17:52:42;;;;;;;;;;;;;;;19.74;37.22;95217.00;10398782;28;2145;-45
2023/01/14 17:57:42;;;;;;;;;;;;;;;19.81;37.90;95220.84;10396628;28;3158;-47
2023/01/14 18:02:42;;;;;;;;;;;;;;;19.83;37.78;95223.19;10405942;28;2140;-43
2023/01/14 18:07:45;;;;;;;;;;;;;;;19.87;37.50;95230.25;10391100;28;2130;-50
2023/01/14 18:12:45;;;;;;;;;;;;;;;19.92;38.06;95232.84;10409056;28;3258;-44
2023/01/14 18:17:45;;;;;;;;;;;;;;;20.07;38.06;95231.88;10397190;28;2148;-46
2023/01/14 18:22:46;;;;;;;;;;;;;;;20.15;37.23;95228.59;10403734;28;3132;-47
2023/01/14 18:27:46;;;;;;;;;;;;;;;20.30;37.50;95219.75;10398664;28;3189;-46
2023/01/14 18:32:46;;;;;;;;;;;;;;;20.36;37.53;95224.66;10392739;28;2126;-45
2023/01/14 18:37:46;;;;;;;;;;;;;;;20.43;37.32;95232.97;10389467;28;3032;-48
2023/01/14 18:42:47;;;;;;;;;;;;;;;20.50;37.36;95237.91;10392521;28;3107;-45
2023/01/14 18:47:47;;;;;;;;;;;;;;;20.52;36.89;95254.97;10395491;28;3185;-46
2023/01/14 18:52:47;;;;;;;;;;;;;;;20.58;36.52;95256.47;10398265;28;3198;-46
2023/01/14 18:57:48;;;;;;;;;;;;;;;20.58;37.09;95230.16;10396179;28;3569;-48
2023/01/14 19:02:48;;;;;;;;;;;;;;;20.55;36.88;95220.16;10395010;28;3165;-47
2023/01/14 19:07:48;;;;;;;;;;;;;;;20.57;36.86;95204.09;10401969;28;3266;-47
2023/01/14 19:12:49;;;;;;;;;;;;;;;20.39;36.68;95210.94;10393734;28;3184;-46
2023/01/14 19:17:49;;;;;;;;;;;;;;;20.23;37.31;95181.41;10409054;28;3242;-43
2023/01/14 19:22:49;;;;;;;;;;;;;;;20.20;37.06;95178.56;10402953;28;3220;-47
2023/01/14 19:27:49;;;;;;;;;;;;;;;20.18;37.59;95156.97;10402310;28;3154;-47
2023/01/14 19:32:50;;;;;;;;;;;;;;;20.13;37.20;95130.75;10406172;28;2208;-45
2023/01/14 19:37:50;;;;;;;;;;;;;;;20.12;37.29;95155.47;10405589;28;3125;-48
2023/01/14 19:42:50;;;;;;;;;;;;;;;20.11;37.57;95157.31;10405930;28;3221;-44
2023/01/14 19:47:51;;;;;;;;;;;;;;;20.07;37.32;95145.81;10404490;28;3181;-44
2023/01/14 19:52:51;;;;;;;;;;;;;;;20.10;37.60;95140.00;10401250;28;3317;-45
2023/01/14 19:57:51;;;;;;;;;;;;;;;20.10;37.54;95149.72;10401547;28;3361;-45
2023/01/14 20:02:51;;;;;;;;;;;;;;;20.23;38.25;95141.94;10413413;28;3169;-46
2023/01/14 20:07:52;;;;;;;;;;;;;;;20.31;38.25;95143.13;10406384;28;3201;-46
2023/01/14 20:12:52;;;;;;;;;;;;;;;20.37;37.86;95131.47;10401731;28;3153;-48
2023/01/14 20:17:52;;;;;;;;;;;;;;;20.41;38.23;95124.56;10394053;28;2096;-43
2023/01/14 20:22:54;;;;;;;;;;;;;;;20.43;37.07;95140.84;10395947;28;2185;-47
2023/01/14 20:27:54;;;;;;;;;;;;;;;20.45;37.97;95128.19;10396819;28;3159;-46
2023/01/14 20:32:54;;;;;;;;;;;;;;;20.45;37.95;95109.75;10400368;28;2136;-46
2023/01/14 20:37:54;;;;;;;;;;;;;;;20.44;38.18;95095.03;10406374;28;3519;-46
2023/01/14 20:42:55;;;;;;;;;;;;;;;20.46;37.89;95089.47;10405090;28;2105;-46
2023/01/14 20:53:14;;;;;;;;;;;;;;;20.45;37.18;95082.63;10398114;28;3174;-48
2023/01/14 20:58:18;;;;;;;;;;;;;;;20.43;37.84;95069.78;10401021;28;3285;-45
2023/01/14 21:03:19;;;;;;;;;;;;;;;20.43;37.34;95043.44;10398075;28;3177;-48
2023/01/14 21:08:19;;;;;;;;;;;;;;;20.41;37.84;95027.16;10400800;28;3182;-46
2023/01/14 21:23:57;;;;;;;;;;;;;;;20.39;38.20;95015.34;10397583;28;2164;-52
2023/01/14 21:28:57;;;;;;;;;;;;;;;20.39;37.71;95010.09;10402637;28;3221;-43
2023/01/14 21:33:58;;;;;;;;;;;;;;;20.37;38.06;95012.22;10399928;28;3188;-47
2023/01/14 21:38:58;;;;;;;;;;;;;;;20.37;37.86;95002.50;10403349;28;2184;-47
2023/01/14 21:43:58;;;;;;;;;;;;;;;20.37;37.83;94985.91;10400721;28;3182;-46
2023/01/14 21:48:58;;;;;;;;;;;;;;;20.36;37.95;94984.38;10402250;28;3230;-47
2023/01/14 21:53:59;;;;;;;;;;;;;;;20.34;38.01;94987.25;10395376;28;2113;-49
2023/01/14 21:58:59;;;;;;;;;;;;;;;20.34;37.75;94997.03;10400406;28;2174;-46
2023/01/14 22:04:00;;;;;;;;;;;;;;;20.33;37.27;94977.81;10402153;28;2160;-46
2023/01/14 22:09:03;;;;;;;;;;;;;;;20.31;37.37;94979.16;10400689;28;3177;-47
2023/01/14 22:14:03;;;;;;;;;;;;;;;20.37;37.75;94968.28;10399655;28;3238;-48
2023/01/14 22:19:03;;;;;;;;;;;;;;;20.37;37.33;94964.84;10388372;28;3139;-46
2023/01/14 22:24:04;;;;;;;;;;;;;;;20.31;36.71;94969.44;10396057;28;3111;-47
2023/01/14 22:29:05;;;;;;;;;;;;;;;20.28;36.54;94954.22;10401583;28;3142;-46
2023/01/14 22:34:05;;;;;;;;;;;;;;;20.24;36.57;94948.75;10400294;28;2293;-44
2023/01/14 22:39:05;;;;;;;;;;;;;;;20.21;37.08;94943.28;10399038;28;3183;-45
2023/01/14 22:44:05;;;;;;;;;;;;;;;20.18;36.88;94939.34;10402790;28;2114;-46
2023/01/14 22:49:06;;;;;;;;;;;;;;;20.13;37.16;94936.81;10399383;28;3214;-47
2023/01/14 22:54:06;;;;;;;;;;;;;;;20.11;36.90;94917.91;10391344;28;3189;-47
2023/01/14 22:59:06;;;;;;;;;;;;;;;20.09;36.98;94921.91;10414470;28;2250;-46
2023/01/14 23:04:07;;;;;;;;;;;;;;;20.08;37.28;94904.53;10372023;28;2145;-47
2023/01/14 23:09:08;;;;;;;;;;;;;;;20.04;36.95;94900.94;10396761;28;3166;-47
2023/01/14 23:14:08;;;;;;;;;;;;;;;20.01;37.01;94893.63;10402287;28;3102;-45
2023/01/14 23:19:09;;;;;;;;;;;;;;;20.00;37.25;94884.97;10396524;28;3256;-47
2023/01/14 23:24:10;;;;;;;;;;;;;;;19.97;37.10;94868.97;10392712;28;2285;-46
2023/01/14 23:29:10;;;;;;;;;;;;;;;19.95;37.08;94873.72;10390474;28;3425;-45
2023/01/14 23:34:12;;;;;;;;;;;;;;;19.92;37.28;94848.81;10393125;28;3303;-49
2023/01/14 23:39:13;;;;;;;;;;;;;;;19.91;37.25;94859.59;10402168;28;3323;-47
2023/01/14 23:44:14;;;;;;;;;;;;;;;19.88;37.36;94841.78;10405766;28;3327;-46
2023/01/14 23:49:14;;;;;;;;;;;;;;;19.87;37.48;94841.00;10394809;28;3467;-47
2023/01/14 23:54:14;;;;;;;;;;;;;;;19.85;37.47;94835.25;10387208;28;3389;-48
2023/01/14 23:59:14;;;;;;;;;;;;;;;19.83;37.32;94826.09;10390914;28;3301;-45
